sensor_id;sensor_type;location;lat;lon;timestamp;temperature;humidity
11540;DHT22;5826;54.756;9.192;2023-01-26T00:01:58;1.80;99.90
11540;DHT22;5826;54.756;9.192;2023-01-26T00:04:24;1.80;99.90
11540;DHT22;5826;54.756;9.192;2023-01-26T00:06:49;1.80;99.90
11540;DHT22;5826;54.756;9.192;2023-01-26T00:09:15;1.80;99.90
11540;DHT22;5826;54.756;9.192;2023-01-26T00:11:41;2.00;99.90
11540;DHT22;5826;54.756;9.192;2023-01-26T00:14:06;2.40;99.90
11540;DHT22;5826;54.756;9.192;2023-01-26T00:16:32;2.00;99.90
11540;DHT22;5826;54.756;9.192;2023-01-26T00:18:57;2.00;99.90
11540;DHT22;5826;54.756;9.192;2023-01-26T00:21:23;2.00;99.90
11540;DHT22;5826;54.756;9.192;2023-01-26T00:23:50;2.10;99.90
11540;DHT22;5826;54.756;9.192;2023-01-26T00:26:21;2.10;99.90
11540;DHT22;5826;54.756;9.192;2023-01-26T00:28:47;2.10;99.90
11540;DHT22;5826;54.756;9.192;2023-01-26T00:31:15;2.10;99.90
11540;DHT22;5826;54.756;9.192;2023-01-26T00:33:41;2.10;99.90
11540;DHT22;5826;54.756;9.192;2023-01-26T00:36:07;2.10;99.90
11540;DHT22;5826;54.756;9.192;2023-01-26T00:38:32;2.20;99.90
11540;DHT22;5826;54.756;9.192;2023-01-26T00:40:58;2.20;99.90
11540;DHT22;5826;54.756;9.192;2023-01-26T00:43:24;2.20;99.90
11540;DHT22;5826;54.756;9.192;2023-01-26T00:45:49;2.20;99.90
11540;DHT22;5826;54.756;9.192;2023-01-26T00:48:15;2.20;99.90
11540;DHT22;5826;54.756;9.192;2023-01-26T00:50:41;2.20;99.90
11540;DHT22;5826;54.756;9.192;2023-01-26T00:53:06;2.20;99.90
11540;DHT22;5826;54.756;9.192;2023-01-26T00:55:32;2.20;99.90
11540;DHT22;5826;54.756;9.192;2023-01-26T00:57:58;2.20;99.90
11540;DHT22;5826;54.756;9.192;2023-01-26T01:00:25;2.20;99.90
11540;DHT22;5826;54.756;9.192;2023-01-26T01:02:50;2.20;99.90
11540;DHT22;5826;54.756;9.192;2023-01-26T01:05:16;2.20;99.90
11540;DHT22;5826;54.756;9.192;2023-01-26T01:07:41;2.30;99.90
11540;DHT22;5826;54.756;9.192;2023-01-26T01:10:07;2.30;99.90
11540;DHT22;5826;54.756;9.192;2023-01-26T01:12:33;2.30;99.90
11540;DHT22;5826;54.756;9.192;2023-01-26T01:14:59;2.30;99.90
11540;DHT22;5826;54.756;9.192;2023-01-26T01:17:25;2.40;99.90
11540;DHT22;5826;54.756;9.192;2023-01-26T01:19:50;2.40;99.90
11540;DHT22;5826;54.756;9.192;2023-01-26T01:22:16;2.40;99.90
11540;DHT22;5826;54.756;9.192;2023-01-26T01:24:41;2.40;99.90
11540;DHT22;5826;54.756;9.192;2023-01-26T01:27:07;2.40;99.90
11540;DHT22;5826;54.756;9.192;2023-01-26T01:29:32;2.70;99.90
11540;DHT22;5826;54.756;9.192;2023-01-26T01:31:58;2.40;99.90
11540;DHT22;5826;54.756;9.192;2023-01-26T01:34:23;2.40;99.90
11540;DHT22;5826;54.756;9.192;2023-01-26T01:36:49;2.40;99.90
11540;DHT22;5826;54.756;9.192;2023-01-26T01:39:14;2.50;99.90
11540;DHT22;5826;54.756;9.192;2023-01-26T01:41:40;2.50;99.90
11540;DHT22;5826;54.756;9.192;2023-01-26T01:46:39;2.50;99.90
11540;DHT22;5826;54.756;9.192;2023-01-26T01:49:19;2.50;99.90
11540;DHT22;5826;54.756;9.192;2023-01-26T01:52:01;2.40;99.90
11540;DHT22;5826;54.756;9.192;2023-01-26T01:54:37;2.40;99.90
11540;DHT22;5826;54.756;9.192;2023-01-26T01:57:06;2.40;99.90
11540;DHT22;5826;54.756;9.192;2023-01-26T01:59:45;2.50;99.90
11540;DHT22;5826;54.756;9.192;2023-01-26T02:02:13;2.40;99.90
11540;DHT22;5826;54.756;9.192;2023-01-26T02:04:39;2.40;99.90
11540;DHT22;5826;54.756;9.192;2023-01-26T02:07:05;2.50;99.90
11540;DHT22;5826;54.756;9.192;2023-01-26T02:09:33;2.50;99.90
11540;DHT22;5826;54.756;9.192;2023-01-26T02:12:21;2.60;99.90
11540;DHT22;5826;54.756;9.192;2023-01-26T02:14:49;2.60;99.90
11540;DHT22;5826;54.756;9.192;2023-01-26T02:17:15;2.60;99.90
11540;DHT22;5826;54.756;9.192;2023-01-26T02:25:32;2.50;99.90
11540;DHT22;5826;54.756;9.192;2023-01-26T02:28:00;2.60;99.90
11540;DHT22;5826;54.756;9.192;2023-01-26T02:30:27;2.60;99.90
11540;DHT22;5826;54.756;9.192;2023-01-26T02:32:53;2.70;99.90
11540;DHT22;5826;54.756;9.192;2023-01-26T02:35:19;2.60;99.90
11540;DHT22;5826;54.756;9.192;2023-01-26T02:37:44;2.60;99.90
11540;DHT22;5826;54.756;9.192;2023-01-26T02:42:40;2.60;99.90
11540;DHT22;5826;54.756;9.192;2023-01-26T02:45:08;3.10;99.90
11540;DHT22;5826;54.756;9.192;2023-01-26T02:47:35;2.70;99.90
11540;DHT22;5826;54.756;9.192;2023-01-26T02:50:00;2.70;99.90
11540;DHT22;5826;54.756;9.192;2023-01-26T02:52:27;2.60;99.90
11540;DHT22;5826;54.756;9.192;2023-01-26T02:54:55;2.70;99.90
11540;DHT22;5826;54.756;9.192;2023-01-26T02:57:39;2.70;99.90
11540;DHT22;5826;54.756;9.192;2023-01-26T03:00:10;2.70;99.90
11540;DHT22;5826;54.756;9.192;2023-01-26T03:02:36;2.70;99.90
11540;DHT22;5826;54.756;9.192;2023-01-26T03:05:01;2.70;99.90
11540;DHT22;5826;54.756;9.192;2023-01-26T03:07:29;2.70;99.90
11540;DHT22;5826;54.756;9.192;2023-01-26T03:09:54;2.70;99.90
11540;DHT22;5826;54.756;9.192;2023-01-26T03:12:20;2.70;99.90
11540;DHT22;5826;54.756;9.192;2023-01-26T03:14:45;2.70;99.90
11540;DHT22;5826;54.756;9.192;2023-01-26T03:17:31;2.70;99.90
11540;DHT22;5826;54.756;9.192;2023-01-26T03:19:56;2.80;99.90
11540;DHT22;5826;54.756;9.192;2023-01-26T03:22:40;2.70;99.90
11540;DHT22;5826;54.756;9.192;2023-01-26T03:25:24;2.70;99.90
11540;DHT22;5826;54.756;9.192;2023-01-26T03:28:08;2.70;99.90
11540;DHT22;5826;54.756;9.192;2023-01-26T03:30:34;2.70;99.90
11540;DHT22;5826;54.756;9.192;2023-01-26T03:32:59;2.80;99.90
11540;DHT22;5826;54.756;9.192;2023-01-26T03:35:25;2.80;99.90
11540;DHT22;5826;54.756;9.192;2023-01-26T03:37:50;2.80;99.90
11540;DHT22;5826;54.756;9.192;2023-01-26T03:40:19;3.10;99.90
11540;DHT22;5826;54.756;9.192;2023-01-26T03:43:07;2.80;99.90
11540;DHT22;5826;54.756;9.192;2023-01-26T03:45:52;2.80;99.90
11540;DHT22;5826;54.756;9.192;2023-01-26T03:48:36;3.40;99.90
11540;DHT22;5826;54.756;9.192;2023-01-26T03:51:20;2.90;99.90
11540;DHT22;5826;54.756;9.192;2023-01-26T03:54:04;2.90;99.90
11540;DHT22;5826;54.756;9.192;2023-01-26T03:56:48;2.90;99.90
11540;DHT22;5826;54.756;9.192;2023-01-26T03:59:14;2.90;99.90
11540;DHT22;5826;54.756;9.192;2023-01-26T04:01:43;3.00;99.90
11540;DHT22;5826;54.756;9.192;2023-01-26T04:04:27;2.90;99.90
11540;DHT22;5826;54.756;9.192;2023-01-26T04:07:11;2.90;99.90
11540;DHT22;5826;54.756;9.192;2023-01-26T04:09:55;2.90;99.90
11540;DHT22;5826;54.756;9.192;2023-01-26T04:12:21;2.90;99.90
11540;DHT22;5826;54.756;9.192;2023-01-26T04:14:46;2.90;99.90
11540;DHT22;5826;54.756;9.192;2023-01-26T04:17:30;2.90;99.90
11540;DHT22;5826;54.756;9.192;2023-01-26T04:20:14;2.90;99.90
11540;DHT22;5826;54.756;9.192;2023-01-26T04:22:58;3.00;99.90
11540;DHT22;5826;54.756;9.192;2023-01-26T04:25:24;3.00;99.90
11540;DHT22;5826;54.756;9.192;2023-01-26T04:27:49;3.30;99.90
11540;DHT22;5826;54.756;9.192;2023-01-26T04:30:16;3.00;99.90
11540;DHT22;5826;54.756;9.192;2023-01-26T04:32:42;3.00;99.90
11540;DHT22;5826;54.756;9.192;2023-01-26T04:35:08;3.00;99.90
11540;DHT22;5826;54.756;9.192;2023-01-26T04:37:35;3.00;99.90
11540;DHT22;5826;54.756;9.192;2023-01-26T04:40:01;3.00;99.90
11540;DHT22;5826;54.756;9.192;2023-01-26T04:42:28;3.00;99.90
11540;DHT22;5826;54.756;9.192;2023-01-26T04:44:53;3.00;99.90
11540;DHT22;5826;54.756;9.192;2023-01-26T04:47:20;3.00;99.90
11540;DHT22;5826;54.756;9.192;2023-01-26T04:49:46;3.00;99.90
11540;DHT22;5826;54.756;9.192;2023-01-26T04:52:12;3.00;99.90
11540;DHT22;5826;54.756;9.192;2023-01-26T04:54:38;3.00;99.90
11540;DHT22;5826;54.756;9.192;2023-01-26T04:57:03;3.00;99.90
11540;DHT22;5826;54.756;9.192;2023-01-26T04:59:29;3.00;99.90
11540;DHT22;5826;54.756;9.192;2023-01-26T05:01:55;3.10;99.90
11540;DHT22;5826;54.756;9.192;2023-01-26T05:04:20;3.10;99.90
11540;DHT22;5826;54.756;9.192;2023-01-26T05:06:46;3.10;99.90
11540;DHT22;5826;54.756;9.192;2023-01-26T05:09:11;3.10;99.90
11540;DHT22;5826;54.756;9.192;2023-01-26T05:11:37;3.10;99.90
11540;DHT22;5826;54.756;9.192;2023-01-26T05:14:02;3.20;99.90
11540;DHT22;5826;54.756;9.192;2023-01-26T05:16:28;3.20;99.90
11540;DHT22;5826;54.756;9.192;2023-01-26T05:18:54;3.20;99.90
11540;DHT22;5826;54.756;9.192;2023-01-26T05:21:20;3.20;99.90
11540;DHT22;5826;54.756;9.192;2023-01-26T05:23:48;3.20;99.90
11540;DHT22;5826;54.756;9.192;2023-01-26T05:26:14;3.20;99.90
11540;DHT22;5826;54.756;9.192;2023-01-26T05:28:39;3.20;99.90
11540;DHT22;5826;54.756;9.192;2023-01-26T05:31:05;3.20;99.90
11540;DHT22;5826;54.756;9.192;2023-01-26T05:33:30;3.20;99.90
11540;DHT22;5826;54.756;9.192;2023-01-26T05:35:56;3.20;99.90
11540;DHT22;5826;54.756;9.192;2023-01-26T05:38:23;3.20;99.90
11540;DHT22;5826;54.756;9.192;2023-01-26T05:40:48;3.30;99.90
11540;DHT22;5826;54.756;9.192;2023-01-26T05:43:14;3.30;99.90
11540;DHT22;5826;54.756;9.192;2023-01-26T05:45:39;3.30;99.90
11540;DHT22;5826;54.756;9.192;2023-01-26T05:48:05;3.30;99.90
11540;DHT22;5826;54.756;9.192;2023-01-26T05:50:31;3.30;99.90
11540;DHT22;5826;54.756;9.192;2023-01-26T05:52:56;3.30;99.90
11540;DHT22;5826;54.756;9.192;2023-01-26T05:55:22;3.30;99.90
11540;DHT22;5826;54.756;9.192;2023-01-26T05:57:47;3.30;99.90
11540;DHT22;5826;54.756;9.192;2023-01-26T06:00:13;3.40;99.90
11540;DHT22;5826;54.756;9.192;2023-01-26T06:02:39;3.40;99.90
11540;DHT22;5826;54.756;9.192;2023-01-26T06:05:05;3.40;99.90
11540;DHT22;5826;54.756;9.192;2023-01-26T06:07:31;3.40;99.90
11540;DHT22;5826;54.756;9.192;2023-01-26T06:09:57;3.40;99.90
11540;DHT22;5826;54.756;9.192;2023-01-26T06:12:23;3.40;99.90
11540;DHT22;5826;54.756;9.192;2023-01-26T06:14:48;3.40;99.90
11540;DHT22;5826;54.756;9.192;2023-01-26T06:17:15;3.40;99.90
11540;DHT22;5826;54.756;9.192;2023-01-26T06:19:41;3.50;99.90
11540;DHT22;5826;54.756;9.192;2023-01-26T06:22:08;3.50;99.90
11540;DHT22;5826;54.756;9.192;2023-01-26T06:24:34;3.50;99.90
11540;DHT22;5826;54.756;9.192;2023-01-26T06:26:59;3.50;99.90
11540;DHT22;5826;54.756;9.192;2023-01-26T06:29:25;3.50;99.90
11540;DHT22;5826;54.756;9.192;2023-01-26T06:31:50;3.50;99.90
11540;DHT22;5826;54.756;9.192;2023-01-26T06:34:16;3.60;99.90
11540;DHT22;5826;54.756;9.192;2023-01-26T06:36:41;3.60;99.90
11540;DHT22;5826;54.756;9.192;2023-01-26T06:39:08;3.60;99.90
11540;DHT22;5826;54.756;9.192;2023-01-26T06:41:35;3.60;99.90
11540;DHT22;5826;54.756;9.192;2023-01-26T06:44:01;3.60;99.90
11540;DHT22;5826;54.756;9.192;2023-01-26T06:46:26;3.70;99.90
11540;DHT22;5826;54.756;9.192;2023-01-26T06:48:52;3.70;99.90
11540;DHT22;5826;54.756;9.192;2023-01-26T06:53:48;3.70;99.90
11540;DHT22;5826;54.756;9.192;2023-01-26T06:56:15;3.70;99.90
11540;DHT22;5826;54.756;9.192;2023-01-26T06:58:41;3.70;99.90
11540;DHT22;5826;54.756;9.192;2023-01-26T07:01:08;3.70;99.90
11540;DHT22;5826;54.756;9.192;2023-01-26T07:03:33;3.70;99.90
11540;DHT22;5826;54.756;9.192;2023-01-26T07:05:58;3.70;99.90
11540;DHT22;5826;54.756;9.192;2023-01-26T07:08:24;3.70;99.90
11540;DHT22;5826;54.756;9.192;2023-01-26T07:10:50;3.70;99.90
11540;DHT22;5826;54.756;9.192;2023-01-26T07:13:15;3.60;99.90
11540;DHT22;5826;54.756;9.192;2023-01-26T07:15:41;3.60;99.90
11540;DHT22;5826;54.756;9.192;2023-01-26T07:18:06;3.60;99.90
11540;DHT22;5826;54.756;9.192;2023-01-26T07:20:32;3.60;99.90
11540;DHT22;5826;54.756;9.192;2023-01-26T07:23:00;3.60;99.90
11540;DHT22;5826;54.756;9.192;2023-01-26T07:25:26;3.50;99.90
11540;DHT22;5826;54.756;9.192;2023-01-26T07:27:56;3.50;99.90
11540;DHT22;5826;54.756;9.192;2023-01-26T07:30:22;3.60;99.90
11540;DHT22;5826;54.756;9.192;2023-01-26T07:32:48;3.60;99.90
11540;DHT22;5826;54.756;9.192;2023-01-26T07:35:13;3.60;99.90
11540;DHT22;5826;54.756;9.192;2023-01-26T07:37:39;3.50;99.90
11540;DHT22;5826;54.756;9.192;2023-01-26T07:40:04;3.60;99.90
11540;DHT22;5826;54.756;9.192;2023-01-26T07:42:30;3.60;99.90
11540;DHT22;5826;54.756;9.192;2023-01-26T07:44:56;3.60;99.90
11540;DHT22;5826;54.756;9.192;2023-01-26T07:47:21;3.60;99.90
11540;DHT22;5826;54.756;9.192;2023-01-26T07:49:47;3.60;99.90
11540;DHT22;5826;54.756;9.192;2023-01-26T07:52:12;3.60;99.90
11540;DHT22;5826;54.756;9.192;2023-01-26T07:54:38;3.60;99.90
11540;DHT22;5826;54.756;9.192;2023-01-26T07:57:04;3.70;99.90
11540;DHT22;5826;54.756;9.192;2023-01-26T07:59:31;3.70;99.90
11540;DHT22;5826;54.756;9.192;2023-01-26T08:01:56;3.70;99.90
11540;DHT22;5826;54.756;9.192;2023-01-26T08:04:22;3.70;99.90
11540;DHT22;5826;54.756;9.192;2023-01-26T08:06:50;3.80;99.90
11540;DHT22;5826;54.756;9.192;2023-01-26T08:09:16;3.80;99.90
11540;DHT22;5826;54.756;9.192;2023-01-26T08:11:41;3.90;99.90
11540;DHT22;5826;54.756;9.192;2023-01-26T08:14:07;4.00;99.90
11540;DHT22;5826;54.756;9.192;2023-01-26T08:16:32;4.10;99.90
11540;DHT22;5826;54.756;9.192;2023-01-26T08:18:58;4.10;99.90
11540;DHT22;5826;54.756;9.192;2023-01-26T08:21:23;4.20;99.90
11540;DHT22;5826;54.756;9.192;2023-01-26T08:23:49;4.20;99.90
11540;DHT22;5826;54.756;9.192;2023-01-26T08:26:16;4.20;99.90
11540;DHT22;5826;54.756;9.192;2023-01-26T08:28:45;4.30;99.90
11540;DHT22;5826;54.756;9.192;2023-01-26T08:31:11;4.30;99.90
11540;DHT22;5826;54.756;9.192;2023-01-26T08:33:38;4.30;99.90
11540;DHT22;5826;54.756;9.192;2023-01-26T08:36:07;4.30;99.90
11540;DHT22;5826;54.756;9.192;2023-01-26T08:38:33;4.30;99.90
11540;DHT22;5826;54.756;9.192;2023-01-26T08:40:59;4.40;99.90
11540;DHT22;5826;54.756;9.192;2023-01-26T08:43:25;4.40;99.90
11540;DHT22;5826;54.756;9.192;2023-01-26T08:45:51;4.50;99.90
11540;DHT22;5826;54.756;9.192;2023-01-26T08:48:16;4.50;99.90
11540;DHT22;5826;54.756;9.192;2023-01-26T08:50:42;4.60;99.90
11540;DHT22;5826;54.756;9.192;2023-01-26T08:53:09;4.60;99.90
11540;DHT22;5826;54.756;9.192;2023-01-26T08:55:35;4.70;99.90
11540;DHT22;5826;54.756;9.192;2023-01-26T08:58:01;4.70;99.90
11540;DHT22;5826;54.756;9.192;2023-01-26T09:00:27;4.70;99.90
11540;DHT22;5826;54.756;9.192;2023-01-26T09:03:00;4.80;99.90
11540;DHT22;5826;54.756;9.192;2023-01-26T09:05:26;4.80;99.90
11540;DHT22;5826;54.756;9.192;2023-01-26T09:07:52;4.90;99.90
11540;DHT22;5826;54.756;9.192;2023-01-26T09:10:17;4.90;99.90
11540;DHT22;5826;54.756;9.192;2023-01-26T09:12:43;5.00;99.90
11540;DHT22;5826;54.756;9.192;2023-01-26T09:15:09;5.00;99.90
11540;DHT22;5826;54.756;9.192;2023-01-26T09:17:34;5.10;99.90
11540;DHT22;5826;54.756;9.192;2023-01-26T09:20:00;5.20;99.90
11540;DHT22;5826;54.756;9.192;2023-01-26T09:22:26;5.20;99.90
11540;DHT22;5826;54.756;9.192;2023-01-26T09:24:51;5.20;99.90
11540;DHT22;5826;54.756;9.192;2023-01-26T09:27:17;5.20;99.90
11540;DHT22;5826;54.756;9.192;2023-01-26T09:29:42;5.30;99.90
11540;DHT22;5826;54.756;9.192;2023-01-26T09:32:08;5.30;99.90
11540;DHT22;5826;54.756;9.192;2023-01-26T09:34:33;5.40;99.90
11540;DHT22;5826;54.756;9.192;2023-01-26T09:36:58;5.40;99.90
11540;DHT22;5826;54.756;9.192;2023-01-26T09:39:24;5.40;99.90
11540;DHT22;5826;54.756;9.192;2023-01-26T09:44:36;5.50;99.90
11540;DHT22;5826;54.756;9.192;2023-01-26T09:47:23;5.60;99.90
11540;DHT22;5826;54.756;9.192;2023-01-26T09:49:59;5.60;99.90
11540;DHT22;5826;54.756;9.192;2023-01-26T09:52:35;5.70;99.90
11540;DHT22;5826;54.756;9.192;2023-01-26T09:55:07;5.70;99.90
11540;DHT22;5826;54.756;9.192;2023-01-26T09:57:48;5.90;99.90
11540;DHT22;5826;54.756;9.192;2023-01-26T10:03:12;5.90;99.90
11540;DHT22;5826;54.756;9.192;2023-01-26T10:08:20;6.00;99.90
11540;DHT22;5826;54.756;9.192;2023-01-26T10:11:00;6.00;99.90
11540;DHT22;5826;54.756;9.192;2023-01-26T10:13:28;6.10;99.90
11540;DHT22;5826;54.756;9.192;2023-01-26T10:16:00;6.10;99.90
11540;DHT22;5826;54.756;9.192;2023-01-26T10:18:32;6.10;99.90
11540;DHT22;5826;54.756;9.192;2023-01-26T10:21:00;6.10;99.90
11540;DHT22;5826;54.756;9.192;2023-01-26T10:23:32;6.10;99.90
11540;DHT22;5826;54.756;9.192;2023-01-26T10:26:20;6.10;99.90
11540;DHT22;5826;54.756;9.192;2023-01-26T10:28:48;6.10;99.90
11540;DHT22;5826;54.756;9.192;2023-01-26T10:31:23;6.10;99.90
11540;DHT22;5826;54.756;9.192;2023-01-26T10:34:00;6.10;99.90
11540;DHT22;5826;54.756;9.192;2023-01-26T10:36:31;6.10;99.90
11540;DHT22;5826;54.756;9.192;2023-01-26T10:39:05;6.10;99.90
11540;DHT22;5826;54.756;9.192;2023-01-26T10:41:31;6.20;99.90
11540;DHT22;5826;54.756;9.192;2023-01-26T10:44:25;6.10;99.90
11540;DHT22;5826;54.756;9.192;2023-01-26T10:47:02;6.10;99.90
11540;DHT22;5826;54.756;9.192;2023-01-26T10:49:28;6.10;99.90
11540;DHT22;5826;54.756;9.192;2023-01-26T10:52:17;6.10;99.90
11540;DHT22;5826;54.756;9.192;2023-01-26T10:54:44;6.10;99.90
11540;DHT22;5826;54.756;9.192;2023-01-26T11:07:38;6.20;99.90
11540;DHT22;5826;54.756;9.192;2023-01-26T11:10:30;6.10;99.90
11540;DHT22;5826;54.756;9.192;2023-01-26T11:13:19;6.10;99.90
11540;DHT22;5826;54.756;9.192;2023-01-26T11:15:51;6.20;99.90
11540;DHT22;5826;54.756;9.192;2023-01-26T11:18:53;6.20;99.90
11540;DHT22;5826;54.756;9.192;2023-01-26T11:21:52;6.20;99.90
11540;DHT22;5826;54.756;9.192;2023-01-26T11:27:11;6.30;99.90
11540;DHT22;5826;54.756;9.192;2023-01-26T11:30:12;6.40;99.90
11540;DHT22;5826;54.756;9.192;2023-01-26T11:33:03;6.50;99.90
11540;DHT22;5826;54.756;9.192;2023-01-26T11:35:53;6.50;99.90
11540;DHT22;5826;54.756;9.192;2023-01-26T11:38:42;6.50;99.90
11540;DHT22;5826;54.756;9.192;2023-01-26T11:41:32;6.50;99.90
11540;DHT22;5826;54.756;9.192;2023-01-26T11:58:26;6.70;99.90
11540;DHT22;5826;54.756;9.192;2023-01-26T12:00:56;6.80;99.90
11540;DHT22;5826;54.756;9.192;2023-01-26T12:06:28;6.90;99.90
11540;DHT22;5826;54.756;9.192;2023-01-26T12:09:02;7.00;99.90
11540;DHT22;5826;54.756;9.192;2023-01-26T12:11:40;7.10;99.90
11540;DHT22;5826;54.756;9.192;2023-01-26T12:19:53;7.10;99.90
11540;DHT22;5826;54.756;9.192;2023-01-26T12:22:36;7.10;99.90
11540;DHT22;5826;54.756;9.192;2023-01-26T12:26:07;7.10;99.90
11540;DHT22;5826;54.756;9.192;2023-01-26T12:28:26;7.10;99.90
11540;DHT22;5826;54.756;9.192;2023-01-26T12:33:46;7.10;99.90
11540;DHT22;5826;54.756;9.192;2023-01-26T12:36:24;7.20;99.90
11540;DHT22;5826;54.756;9.192;2023-01-26T12:44:32;6.90;99.90
11540;DHT22;5826;54.756;9.192;2023-01-26T12:49:50;7.00;99.90
11540;DHT22;5826;54.756;9.192;2023-01-26T12:55:21;7.00;99.90
11540;DHT22;5826;54.756;9.192;2023-01-26T12:57:59;6.90;99.90
11540;DHT22;5826;54.756;9.192;2023-01-26T13:00:32;6.70;99.90
11540;DHT22;5826;54.756;9.192;2023-01-26T13:03:02;6.70;99.90
11540;DHT22;5826;54.756;9.192;2023-01-26T13:05:32;7.00;99.90
11540;DHT22;5826;54.756;9.192;2023-01-26T13:10:57;7.90;99.90
11540;DHT22;5826;54.756;9.192;2023-01-26T13:13:30;9.30;99.90
11540;DHT22;5826;54.756;9.192;2023-01-26T13:18:56;10.90;99.90
11540;DHT22;5826;54.756;9.192;2023-01-26T13:21:43;10.40;99.90
11540;DHT22;5826;54.756;9.192;2023-01-26T13:26:44;9.10;99.90
11540;DHT22;5826;54.756;9.192;2023-01-26T13:29:30;8.50;99.90
11540;DHT22;5826;54.756;9.192;2023-01-26T13:34:36;7.70;99.90
11540;DHT22;5826;54.756;9.192;2023-01-26T13:37:16;8.10;99.90
11540;DHT22;5826;54.756;9.192;2023-01-26T13:39:51;8.40;99.90
11540;DHT22;5826;54.756;9.192;2023-01-26T13:42:39;8.80;99.90
11540;DHT22;5826;54.756;9.192;2023-01-26T13:45:15;9.20;99.90
11540;DHT22;5826;54.756;9.192;2023-01-26T13:47:43;9.40;99.90
11540;DHT22;5826;54.756;9.192;2023-01-26T13:50:31;9.40;99.90
11540;DHT22;5826;54.756;9.192;2023-01-26T13:52:57;9.20;99.90
11540;DHT22;5826;54.756;9.192;2023-01-26T13:55:25;8.70;99.90
11540;DHT22;5826;54.756;9.192;2023-01-26T13:58:14;8.20;99.90
11540;DHT22;5826;54.756;9.192;2023-01-26T14:00:41;7.80;99.90
11540;DHT22;5826;54.756;9.192;2023-01-26T14:03:20;7.50;99.90
11540;DHT22;5826;54.756;9.192;2023-01-26T14:06:01;7.30;99.90
11540;DHT22;5826;54.756;9.192;2023-01-26T14:08:29;7.20;99.90
11540;DHT22;5826;54.756;9.192;2023-01-26T14:10:56;7.00;99.90
11540;DHT22;5826;54.756;9.192;2023-01-26T14:13:35;6.80;99.90
11540;DHT22;5826;54.756;9.192;2023-01-26T14:16:02;6.60;99.90
11540;DHT22;5826;54.756;9.192;2023-01-26T14:18:29;6.60;99.90
11540;DHT22;5826;54.756;9.192;2023-01-26T14:21:03;6.60;99.90
11540;DHT22;5826;54.756;9.192;2023-01-26T14:23:34;6.90;99.90
11540;DHT22;5826;54.756;9.192;2023-01-26T14:26:16;7.40;99.90
11540;DHT22;5826;54.756;9.192;2023-01-26T14:28:43;7.50;99.90
11540;DHT22;5826;54.756;9.192;2023-01-26T14:33:42;7.30;99.90
11540;DHT22;5826;54.756;9.192;2023-01-26T14:36:15;7.10;99.90
11540;DHT22;5826;54.756;9.192;2023-01-26T14:38:43;7.00;99.90
11540;DHT22;5826;54.756;9.192;2023-01-26T14:41:17;6.90;99.90
11540;DHT22;5826;54.756;9.192;2023-01-26T14:43:48;6.90;99.90
11540;DHT22;5826;54.756;9.192;2023-01-26T14:47:19;6.90;99.90
11540;DHT22;5826;54.756;9.192;2023-01-26T14:51:56;7.00;99.90
11540;DHT22;5826;54.756;9.192;2023-01-26T14:54:28;6.90;99.90
11540;DHT22;5826;54.756;9.192;2023-01-26T14:56:55;6.90;99.90
11540;DHT22;5826;54.756;9.192;2023-01-26T14:59:32;6.80;99.90
11540;DHT22;5826;54.756;9.192;2023-01-26T15:02:12;6.80;99.90
11540;DHT22;5826;54.756;9.192;2023-01-26T15:04:42;6.60;99.90
11540;DHT22;5826;54.756;9.192;2023-01-26T15:09:54;6.30;99.90
11540;DHT22;5826;54.756;9.192;2023-01-26T15:12:20;6.30;99.90
11540;DHT22;5826;54.756;9.192;2023-01-26T15:14:56;6.20;99.90
11540;DHT22;5826;54.756;9.192;2023-01-26T15:19:54;6.00;99.90
11540;DHT22;5826;54.756;9.192;2023-01-26T15:22:22;5.90;99.90
11540;DHT22;5826;54.756;9.192;2023-01-26T15:24:59;5.80;99.90
11540;DHT22;5826;54.756;9.192;2023-01-26T15:27:35;5.80;99.90
11540;DHT22;5826;54.756;9.192;2023-01-26T15:30:02;5.70;99.90
11540;DHT22;5826;54.756;9.192;2023-01-26T15:32:36;5.60;99.90
11540;DHT22;5826;54.756;9.192;2023-01-26T15:35:25;5.50;99.90
11540;DHT22;5826;54.756;9.192;2023-01-26T15:40:31;5.50;99.90
11540;DHT22;5826;54.756;9.192;2023-01-26T15:43:13;5.40;99.90
11540;DHT22;5826;54.756;9.192;2023-01-26T15:45:50;5.40;99.90
11540;DHT22;5826;54.756;9.192;2023-01-26T15:48:16;5.30;99.90
11540;DHT22;5826;54.756;9.192;2023-01-26T15:50:42;5.30;99.90
11540;DHT22;5826;54.756;9.192;2023-01-26T15:53:13;5.20;99.90
11540;DHT22;5826;54.756;9.192;2023-01-26T15:55:39;5.10;99.90
11540;DHT22;5826;54.756;9.192;2023-01-26T15:58:05;5.10;99.90
11540;DHT22;5826;54.756;9.192;2023-01-26T16:00:30;5.00;99.90
11540;DHT22;5826;54.756;9.192;2023-01-26T16:02:56;5.00;99.90
11540;DHT22;5826;54.756;9.192;2023-01-26T16:05:23;5.00;99.90
11540;DHT22;5826;54.756;9.192;2023-01-26T16:07:48;5.00;99.90
11540;DHT22;5826;54.756;9.192;2023-01-26T16:10:16;5.00;99.90
11540;DHT22;5826;54.756;9.192;2023-01-26T16:12:43;5.00;99.90
11540;DHT22;5826;54.756;9.192;2023-01-26T16:18:12;5.00;99.90
11540;DHT22;5826;54.756;9.192;2023-01-26T16:20:39;5.00;99.90
11540;DHT22;5826;54.756;9.192;2023-01-26T16:23:24;5.10;99.90
11540;DHT22;5826;54.756;9.192;2023-01-26T16:25:50;5.10;99.90
11540;DHT22;5826;54.756;9.192;2023-01-26T16:28:17;5.10;99.90
11540;DHT22;5826;54.756;9.192;2023-01-26T16:30:44;5.10;99.90
11540;DHT22;5826;54.756;9.192;2023-01-26T16:33:12;5.20;99.90
11540;DHT22;5826;54.756;9.192;2023-01-26T16:35:38;5.20;99.90
11540;DHT22;5826;54.756;9.192;2023-01-26T16:38:03;5.30;99.90
11540;DHT22;5826;54.756;9.192;2023-01-26T16:40:31;5.30;99.90
11540;DHT22;5826;54.756;9.192;2023-01-26T16:42:57;5.40;99.90
11540;DHT22;5826;54.756;9.192;2023-01-26T16:45:25;5.40;99.90
11540;DHT22;5826;54.756;9.192;2023-01-26T16:47:55;5.40;99.90
11540;DHT22;5826;54.756;9.192;2023-01-26T16:50:21;5.50;99.90
11540;DHT22;5826;54.756;9.192;2023-01-26T16:52:47;5.50;99.90
11540;DHT22;5826;54.756;9.192;2023-01-26T16:55:14;5.50;99.90
11540;DHT22;5826;54.756;9.192;2023-01-26T16:57:44;5.50;99.90
11540;DHT22;5826;54.756;9.192;2023-01-26T17:02:41;5.50;99.90
11540;DHT22;5826;54.756;9.192;2023-01-26T17:05:28;5.50;99.90
11540;DHT22;5826;54.756;9.192;2023-01-26T17:07:53;5.50;99.90
11540;DHT22;5826;54.756;9.192;2023-01-26T17:10:19;5.60;99.90
11540;DHT22;5826;54.756;9.192;2023-01-26T17:12:46;5.60;99.90
11540;DHT22;5826;54.756;9.192;2023-01-26T17:15:12;5.60;99.90
11540;DHT22;5826;54.756;9.192;2023-01-26T17:17:38;5.50;99.90
11540;DHT22;5826;54.756;9.192;2023-01-26T17:20:04;5.50;99.90
11540;DHT22;5826;54.756;9.192;2023-01-26T17:22:30;5.50;99.90
11540;DHT22;5826;54.756;9.192;2023-01-26T17:24:56;5.40;99.90
11540;DHT22;5826;54.756;9.192;2023-01-26T17:27:23;5.40;99.90
11540;DHT22;5826;54.756;9.192;2023-01-26T17:29:48;5.40;99.90
11540;DHT22;5826;54.756;9.192;2023-01-26T17:32:15;5.30;99.90
11540;DHT22;5826;54.756;9.192;2023-01-26T17:34:41;5.30;99.90
11540;DHT22;5826;54.756;9.192;2023-01-26T17:37:07;5.30;99.90
11540;DHT22;5826;54.756;9.192;2023-01-26T17:39:33;5.40;99.90
11540;DHT22;5826;54.756;9.192;2023-01-26T17:41:58;5.30;99.90
11540;DHT22;5826;54.756;9.192;2023-01-26T17:44:25;5.30;99.90
11540;DHT22;5826;54.756;9.192;2023-01-26T17:46:50;5.30;99.90
11540;DHT22;5826;54.756;9.192;2023-01-26T17:49:16;5.30;99.90
11540;DHT22;5826;54.756;9.192;2023-01-26T17:51:41;5.30;99.90
11540;DHT22;5826;54.756;9.192;2023-01-26T17:54:11;5.30;99.90
11540;DHT22;5826;54.756;9.192;2023-01-26T17:56:36;5.30;99.90
11540;DHT22;5826;54.756;9.192;2023-01-26T17:59:02;5.30;99.90
11540;DHT22;5826;54.756;9.192;2023-01-26T18:01:27;5.30;99.90